Main page
METAR-TAF:

METAR-TAF

Airports :

Donegal Airport

Donegal, Ireland

latitude: 55-02-39N, longitude: 8-20-28W, elevation: 9 m

Current weather observation

The report was made 10 hours and 40 minutes ago, at 19:00 UTC
Wind 12 kt from the South/Southwest
Temperature 19°C
Humidity 68%
Pressure 1014 hPa
Visibility 10 km or more
no clouds below 1500 m and no cumulonimbus

METAR: EIDL 231900Z 21012KT CAVOK 19/13 Q1014

Time: 06:40 (05:40 UTC)

Forecast

The report was made 40 minutes ago, at 05:00 UTC
Forecast valid from 24 at 06 UTC to 24 at 15 UTC
Wind 12 kt from the South
Visibility 10 km or more
Scattered clouds at a height of 2500 ft
Becoming
from 24 at 13 UTC to 24 at 15 UTC
Wind 3 kt from variable directions

TAF: EIDL 240500Z 2406/2415 17012KT 9999 SCT025 BECMG 2413/2415 VRB03KT

Weather observations and forecasts of more than 4000 airports (METAR and TAF reports).

The available stations are represented by yellow and red dots on the map.

Hover mouse over dot to see the name of the station.

Then click to see weather observations and forecasts.

To change the map : click on the green buttons with a black cross to zoom in, on the green button with a dash to zoom out, or on the green arrows for adjacent maps.


METAR-TAF: